Terminal Aerodrome Forecast
Issued by NWS Austin/San Antonio, TX

Current Version | Previous Version | Text Only | Print | Product List | Glossary On
Versions: 1 2 3 4 5 6 7 8 9 10 11 12 13 14 15 16
000
FTUS44 KEWX 241100
TAFAUS
TAF
KAUS 241128Z 2412/2518 00000KT P6SM -RA FEW080 BKN110
     FM241700 VRB06KT P6SM SCT050 BKN250
     FM242100 13007KT P6SM SCT050 BKN250
     FM250600 15002KT P6SM SCT050 BKN250=

USA.gov is the U.S. government's official web portal to all federal, state and local government web resources and services.